Time;durP1;ratioP1;P1;durP2;ratioP2;P2;SDS_P1;SDS_P2;PMS_P1;PMS_P2;Temp;Humidity;BMP_temperature;BMP_pressure;BME280_temperature;BME280_humidity;BME280_pressure;Samples;Min_cycle;Max_cycle;Signal;HPM_P1;HPM_P2
2024/01/02 00:01:25;;;;;;;0.60;0.60;;;9.50;99.90;;;;;;5089222;28;20047;-62
2024/01/02 00:03:53;;;;;;;1.80;0.63;;;9.50;99.90;;;;;;5086768;28;20369;-68
2024/01/02 00:06:20;;;;;;;2.55;0.57;;;9.60;99.90;;;;;;5089257;28;20047;-64
2024/01/02 00:08:48;;;;;;;1.27;0.60;;;9.60;99.90;;;;;;5088965;28;20051;-65
2024/01/02 00:11:15;;;;;;;1.58;0.60;;;9.50;99.90;;;;;;5084439;28;20396;-62
2024/01/02 00:13:43;;;;;;;0.47;0.40;;;9.60;99.90;;;;;;5088990;28;20236;-61
2024/01/02 00:16:11;;;;;;;2.25;0.40;;;9.50;99.90;;;;;;5088924;28;20047;-62
2024/01/02 00:18:39;;;;;;;2.42;0.68;;;9.50;99.90;;;;;;5087302;28;20071;-62
2024/01/02 00:21:06;;;;;;;2.47;0.45;;;9.50;99.90;;;;;;5089352;28;20540;-62
2024/01/02 00:23:34;;;;;;;3.35;0.50;;;9.40;99.90;;;;;;5088392;28;20040;-62
2024/01/02 00:26:02;;;;;;;1.17;0.55;;;9.40;99.90;;;;;;5087671;28;20389;-63
2024/01/02 00:28:29;;;;;;;4.22;0.60;;;9.40;99.90;;;;;;5093468;28;20043;-62
2024/01/02 00:30:58;;;;;;;2.67;0.43;;;9.40;99.90;;;;;;5088388;28;20059;-63
2024/01/02 00:33:26;;;;;;;2.28;0.57;;;9.40;99.90;;;;;;5087111;28;20048;-68
2024/01/02 00:35:53;;;;;;;2.63;0.57;;;9.50;99.90;;;;;;5086455;28;20051;-70
2024/01/02 00:38:24;;;;;;;5.35;0.95;;;9.50;99.90;;;;;;5087270;28;20054;-72
2024/01/02 00:40:52;;;;;;;4.10;1.10;;;9.50;99.90;;;;;;5087448;28;20048;-72
2024/01/02 00:43:20;;;;;;;10.65;0.95;;;9.50;99.90;;;;;;5086640;28;20048;-71
2024/01/02 00:45:48;;;;;;;3.45;0.75;;;9.50;99.90;;;;;;5054158;28;20052;-71
2024/01/02 00:48:16;;;;;;;4.00;0.65;;;9.50;99.90;;;;;;5091950;28;20534;-69
2024/01/02 00:50:44;;;;;;;4.65;0.63;;;9.40;99.90;;;;;;5093424;28;20036;-72
2024/01/02 00:53:11;;;;;;;7.93;0.50;;;9.50;99.90;;;;;;5094257;28;20035;-72
2024/01/02 00:55:39;;;;;;;5.85;1.13;;;9.40;99.90;;;;;;5055270;28;20055;-71
2024/01/02 00:58:07;;;;;;;11.35;0.98;;;9.50;99.90;;;;;;5072831;28;20059;-72
2024/01/02 01:00:35;;;;;;;6.97;1.10;;;9.40;99.90;;;;;;5087012;28;20040;-71
2024/01/02 01:03:04;;;;;;;8.10;1.10;;;9.40;99.90;;;;;;5087468;28;20047;-70
2024/01/02 01:05:32;;;;;;;2.92;0.77;;;9.40;99.90;;;;;;5082226;28;20040;-71
2024/01/02 01:08:00;;;;;;;3.95;0.95;;;9.40;99.90;;;;;;5084953;28;20036;-68
2024/01/02 01:10:28;;;;;;;5.80;1.10;;;9.40;99.90;;;;;;5086920;28;20052;-63
2024/01/02 01:12:55;;;;;;;6.72;0.80;;;9.40;99.90;;;;;;5075616;28;20048;-62
2024/01/02 01:15:23;;;;;;;10.02;1.10;;;9.40;99.90;;;;;;5088090;28;20052;-63
2024/01/02 01:17:51;;;;;;;6.53;1.23;;;9.30;99.90;;;;;;5083475;28;20047;-63
2024/01/02 01:20:19;;;;;;;9.38;1.17;;;9.30;99.90;;;;;;5069600;28;20052;-62
2024/01/02 01:22:46;;;;;;;10.82;1.45;;;9.30;99.90;;;;;;5091764;28;20043;-65
2024/01/02 01:25:14;;;;;;;9.05;1.15;;;9.30;99.90;;;;;;5107287;28;20048;-62
2024/01/02 01:27:42;;;;;;;8.90;1.08;;;9.20;99.90;;;;;;5074367;28;20383;-61
2024/01/02 01:30:10;;;;;;;11.10;1.42;;;9.10;99.90;;;;;;5086254;28;20395;-62
2024/01/02 01:32:38;;;;;;;7.22;1.05;;;9.10;99.90;;;;;;5088322;28;20055;-66
2024/01/02 01:35:07;;;;;;;12.18;1.73;;;9.10;99.90;;;;;;5089511;28;20047;-62
2024/01/02 01:37:38;;;;;;;12.67;2.03;;;9.00;99.90;;;;;;5090923;28;20040;-62
2024/01/02 01:40:06;;;;;;;7.20;1.70;;;9.00;99.90;;;;;;5089984;28;20051;-61
2024/01/02 01:42:34;;;;;;;12.68;1.73;;;9.00;99.90;;;;;;5081200;28;20057;-62
2024/01/02 01:45:02;;;;;;;9.15;1.00;;;9.00;99.90;;;;;;5110881;28;20047;-62
2024/01/02 01:47:31;;;;;;;12.23;1.30;;;9.00;99.90;;;;;;5108349;28;20380;-61
2024/01/02 01:49:58;;;;;;;9.52;1.52;;;8.90;99.90;;;;;;5091764;28;20048;-61
2024/01/02 01:52:32;;;;;;;14.05;1.50;;;8.80;99.90;;;;;;5094202;28;20502;-62
2024/01/02 01:55:00;;;;;;;10.05;1.40;;;8.70;99.90;;;;;;5089640;28;20055;-61
2024/01/02 01:57:29;;;;;;;12.25;1.20;;;8.70;99.90;;;;;;5085643;28;20071;-71
2024/01/02 01:59:57;;;;;;;15.88;2.40;;;8.60;99.90;;;;;;5070908;28;20048;-69
2024/01/02 02:02:25;;;;;;;8.02;1.38;;;8.60;99.90;;;;;;5089145;28;20047;-72
2024/01/02 02:04:53;;;;;;;13.52;2.10;;;8.60;99.90;;;;;;5108447;28;20036;-71
2024/01/02 02:07:21;;;;;;;10.23;1.48;;;8.50;99.90;;;;;;5110544;28;20046;-72
2024/01/02 02:09:50;;;;;;;10.50;1.90;;;8.50;99.90;;;;;;5076507;28;20040;-71
2024/01/02 02:12:18;;;;;;;15.05;1.92;;;8.50;99.90;;;;;;5084581;28;20076;-62
2024/01/02 02:14:46;;;;;;;13.35;2.30;;;8.50;99.90;;;;;;5087834;28;20039;-62
2024/01/02 02:17:34;;;;;;;12.70;1.75;;;8.40;99.90;;;;;;5089570;28;20399;-62
2024/01/02 02:20:02;;;;;;;24.02;2.90;;;8.40;99.90;;;;;;5072739;28;20118;-65
2024/01/02 02:22:37;;;;;;;19.80;3.28;;;8.40;99.90;;;;;;5093349;28;20052;-67
2024/01/02 02:25:06;;;;;;;17.52;2.28;;;8.40;99.90;;;;;;5089511;28;20102;-70
2024/01/02 02:27:35;;;;;;;13.90;1.83;;;8.30;99.90;;;;;;5089375;28;20040;-62
2024/01/02 02:30:04;;;;;;;14.90;1.65;;;8.30;99.90;;;;;;5089429;28;20040;-64
2024/01/02 02:32:33;;;;;;;22.83;3.03;;;8.30;99.90;;;;;;5087101;28;20067;-61
2024/01/02 02:35:01;;;;;;;17.08;2.75;;;8.40;99.90;;;;;;5093958;28;20071;-61
2024/01/02 02:37:29;;;;;;;13.13;1.73;;;8.30;99.90;;;;;;5093442;28;20059;-64
2024/01/02 02:39:56;;;;;;;19.20;2.85;;;8.30;99.90;;;;;;5092474;28;20040;-62
2024/01/02 02:42:24;;;;;;;15.57;2.03;;;8.30;99.90;;;;;;5088579;28;20048;-61
2024/01/02 02:44:52;;;;;;;15.57;1.98;;;8.30;99.90;;;;;;5085712;28;20060;-62
2024/01/02 02:47:21;;;;;;;20.27;3.30;;;8.30;99.90;;;;;;5087791;28;20055;-61
2024/01/02 02:49:52;;;;;;;;;;;8.30;99.90;;;;;;5093274;28;20395;-61
2024/01/02 02:52:20;;;;;;;17.55;2.35;;;8.30;99.90;;;;;;5083783;28;19924;-61
2024/01/02 02:54:48;;;;;;;18.98;2.13;;;8.40;99.90;;;;;;5073783;28;20051;-61
2024/01/02 02:57:15;;;;;;;18.77;1.90;;;8.40;99.90;;;;;;5085157;28;20043;-62
2024/01/02 02:59:43;;;;;;;15.40;1.92;;;8.50;99.90;;;;;;5093266;28;20043;-63
2024/01/02 03:02:11;;;;;;;17.33;2.17;;;8.50;99.90;;;;;;5092592;28;20044;-64
2024/01/02 03:04:38;;;;;;;22.13;1.83;;;8.50;99.90;;;;;;5093054;28;20062;-62
2024/01/02 03:07:07;;;;;;;12.18;2.58;;;8.50;99.90;;;;;;5093494;28;20052;-61
2024/01/02 03:09:34;;;;;;;14.35;1.83;;;8.50;99.90;;;;;;5089978;28;20044;-64
2024/01/02 03:12:03;;;;;;;14.63;1.85;;;8.50;99.90;;;;;;5091084;28;20067;-61
2024/01/02 03:14:30;;;;;;;16.08;1.80;;;8.50;99.90;;;;;;5070649;28;20052;-64
2024/01/02 03:16:58;;;;;;;14.80;2.30;;;8.50;99.90;;;;;;5075705;28;20517;-62
2024/01/02 03:19:26;;;;;;;13.57;2.63;;;8.40;99.90;;;;;;5093360;28;20047;-63
2024/01/02 03:21:53;;;;;;;18.90;2.42;;;8.40;99.90;;;;;;5103109;28;20047;-65
2024/01/02 03:24:21;;;;;;;20.38;2.00;;;8.40;99.90;;;;;;5113769;28;20055;-67
2024/01/02 03:26:49;;;;;;;20.17;2.03;;;8.40;99.90;;;;;;5105572;28;20047;-64
2024/01/02 03:29:16;;;;;;;10.75;1.92;;;8.40;99.90;;;;;;5093269;28;20040;-61
2024/01/02 03:31:44;;;;;;;19.02;2.25;;;8.50;99.90;;;;;;5092629;28;20040;-65
2024/01/02 03:34:12;;;;;;;12.80;2.03;;;8.40;99.90;;;;;;5093064;28;20055;-63
2024/01/02 03:36:40;;;;;;;20.27;3.83;;;8.40;99.90;;;;;;5091558;28;20059;-63
2024/01/02 03:39:07;;;;;;;17.77;2.58;;;8.40;99.90;;;;;;5091764;28;20055;-62
2024/01/02 03:41:35;;;;;;;22.95;1.85;;;8.30;99.90;;;;;;5093159;28;20387;-63
2024/01/02 03:44:03;;;;;;;14.77;2.58;;;8.40;99.90;;;;;;5074297;28;20051;-64
2024/01/02 03:46:31;;;;;;;22.08;3.13;;;8.40;99.90;;;;;;5093033;28;20423;-64
2024/01/02 03:48:58;;;;;;;17.45;2.20;;;8.40;99.90;;;;;;5090616;28;20502;-63
2024/01/02 03:51:26;;;;;;;26.65;2.83;;;8.50;99.90;;;;;;5091365;28;20074;-65
2024/01/02 03:53:54;;;;;;;18.17;2.63;;;8.50;99.90;;;;;;5092094;28;20048;-70
2024/01/02 03:56:22;;;;;;;26.85;3.22;;;8.50;99.90;;;;;;5091898;28;20044;-63
2024/01/02 03:58:49;;;;;;;24.13;2.63;;;8.50;99.90;;;;;;5092111;28;20044;-65
2024/01/02 04:01:17;;;;;;;24.35;2.03;;;8.50;99.90;;;;;;5092629;28;20055;-64
2024/01/02 04:03:44;;;;;;;17.20;2.00;;;8.60;99.90;;;;;;5091847;28;20507;-72
2024/01/02 04:06:12;;;;;;;19.00;2.35;;;8.60;99.90;;;;;;5092245;28;20052;-72
2024/01/02 04:08:40;;;;;;;20.23;2.55;;;8.60;99.90;;;;;;5092567;28;20051;-68
2024/01/02 04:11:08;;;;;;;24.77;2.35;;;8.60;99.90;;;;;;5090992;28;20056;-70
2024/01/02 04:13:35;;;;;;;21.80;2.88;;;8.70;99.90;;;;;;5092544;28;20635;-71
2024/01/02 04:16:04;;;;;;;22.65;3.67;;;8.70;99.90;;;;;;5091545;28;20503;-71
2024/01/02 04:18:32;;;;;;;30.57;3.70;;;8.80;99.90;;;;;;5092306;28;20048;-65
2024/01/02 04:21:00;;;;;;;24.50;4.32;;;8.80;99.90;;;;;;5092092;28;20037;-71
2024/01/02 04:23:28;;;;;;;25.25;2.83;;;8.90;99.90;;;;;;5091089;28;20126;-69
2024/01/02 04:25:55;;;;;;;28.58;2.92;;;8.90;99.90;;;;;;5092288;28;20044;-71
2024/01/02 04:28:23;;;;;;;20.50;4.40;;;9.00;99.90;;;;;;5092090;28;20055;-67
2024/01/02 04:30:51;;;;;;;22.77;3.63;;;9.00;99.90;;;;;;5091830;28;20054;-71
2024/01/02 04:33:18;;;;;;;28.33;3.38;;;9.00;99.90;;;;;;5090516;28;20428;-69
2024/01/02 04:35:46;;;;;;;26.65;3.15;;;9.10;99.90;;;;;;5092013;28;20518;-69
2024/01/02 04:38:13;;;;;;;20.35;2.75;;;9.10;99.90;;;;;;5091198;28;20414;-68
2024/01/02 04:40:41;;;;;;;28.08;3.38;;;9.10;99.90;;;;;;5091927;28;20044;-64
2024/01/02 04:43:09;;;;;;;15.40;2.63;;;9.10;99.90;;;;;;5092102;28;20044;-65
2024/01/02 04:45:36;;;;;;;21.40;2.58;;;9.00;99.90;;;;;;5091832;28;20055;-71
2024/01/02 04:48:05;;;;;;;28.77;3.08;;;9.00;99.90;;;;;;5089169;28;20040;-68
2024/01/02 04:50:41;;;;;;;20.17;3.58;;;9.00;99.90;;;;;;5091785;28;20051;-70
2024/01/02 04:53:09;;;;;;;19.02;2.55;;;9.00;99.90;;;;;;5071571;28;20487;-64
2024/01/02 04:55:37;;;;;;;25.75;3.03;;;8.90;99.90;;;;;;5053519;28;20087;-62
2024/01/02 04:58:04;;;;;;;19.27;2.47;;;9.00;99.90;;;;;;5079480;28;20044;-67
2024/01/02 05:00:33;;;;;;;25.17;2.40;;;8.90;99.90;;;;;;5082993;28;20040;-65
2024/01/02 05:03:01;;;;;;;19.80;2.50;;;8.90;99.90;;;;;;5091689;28;20399;-63
2024/01/02 05:05:29;;;;;;;23.90;2.55;;;8.90;99.90;;;;;;5090445;28;20052;-66
2024/01/02 05:07:58;;;;;;;23.02;2.75;;;8.90;99.90;;;;;;5090815;28;20051;-68
2024/01/02 05:10:25;;;;;;;24.15;2.67;;;8.80;99.90;;;;;;5090291;28;20041;-69
2024/01/02 05:12:53;;;;;;;19.25;2.28;;;8.80;99.90;;;;;;5091356;28;20048;-67
2024/01/02 05:15:20;;;;;;;31.48;4.05;;;8.80;99.90;;;;;;5091733;28;20067;-61
2024/01/02 05:17:48;;;;;;;31.23;3.83;;;8.80;99.90;;;;;;5090776;28;20529;-63
2024/01/02 05:20:16;;;;;;;26.63;4.50;;;8.80;99.90;;;;;;5087433;28;20044;-63
2024/01/02 05:22:44;;;;;;;25.30;3.53;;;8.70;99.90;;;;;;5107192;28;20113;-62
2024/01/02 05:25:13;;;;;;;23.30;4.05;;;8.80;99.90;;;;;;5095553;28;20051;-64
2024/01/02 05:27:40;;;;;;;28.08;3.70;;;8.80;99.90;;;;;;5091465;28;20048;-62
2024/01/02 05:30:09;;;;;;;21.80;3.15;;;8.90;99.90;;;;;;5091109;28;20052;-62
2024/01/02 05:32:36;;;;;;;29.63;3.60;;;8.90;99.90;;;;;;5091256;28;20040;-65
2024/01/02 05:35:05;;;;;;;21.42;3.72;;;8.90;99.90;;;;;;5091068;28;20040;-61
2024/01/02 05:37:33;;;;;;;28.92;3.83;;;8.90;99.90;;;;;;5090607;28;20395;-62
2024/01/02 05:40:00;;;;;;;21.65;3.15;;;8.90;99.90;;;;;;5091446;28;20044;-62
2024/01/02 05:42:28;;;;;;;21.48;3.45;;;8.90;99.90;;;;;;5091417;28;20048;-63
2024/01/02 05:44:56;;;;;;;22.33;3.22;;;8.90;99.90;;;;;;5091307;28;20492;-62
2024/01/02 05:47:23;;;;;;;21.40;2.95;;;8.90;99.90;;;;;;5083914;28;20513;-62
2024/01/02 05:49:51;;;;;;;22.77;3.00;;;9.00;99.90;;;;;;5067645;28;20032;-61
2024/01/02 05:52:19;;;;;;;23.70;3.08;;;9.00;99.90;;;;;;5094041;28;20756;-62
2024/01/02 05:54:46;;;;;;;35.13;3.33;;;9.00;99.90;;;;;;5108151;28;20402;-62
2024/01/02 05:57:14;;;;;;;27.50;4.57;;;9.00;99.90;;;;;;5107989;28;20054;-63
2024/01/02 05:59:42;;;;;;;30.58;3.05;;;9.00;99.90;;;;;;5107795;28;20047;-62
2024/01/02 06:02:09;;;;;;;22.63;3.95;;;9.00;99.90;;;;;;5080914;28;20060;-65
2024/01/02 06:04:40;;;;;;;22.60;2.75;;;9.00;99.90;;;;;;5077528;28;20071;-64
2024/01/02 06:07:07;;;;;;;22.60;3.70;;;8.90;99.90;;;;;;5084191;28;20052;-62
2024/01/02 06:09:35;;;;;;;23.13;3.78;;;8.90;99.90;;;;;;5082274;28;20040;-62
2024/01/02 06:12:03;;;;;;;25.98;3.28;;;8.90;99.90;;;;;;5089674;28;20052;-61
2024/01/02 06:14:31;;;;;;;27.77;3.08;;;8.90;99.90;;;;;;5090183;28;20048;-62
2024/01/02 06:16:58;;;;;;;25.27;3.53;;;8.90;99.90;;;;;;5085183;28;20044;-63
2024/01/02 06:19:26;;;;;;;29.35;3.55;;;8.90;99.90;;;;;;5082890;28;20048;-63
2024/01/02 06:21:54;;;;;;;26.20;3.53;;;8.90;99.90;;;;;;5092231;28;20040;-68
2024/01/02 06:24:24;;;;;;;25.60;3.35;;;8.90;99.90;;;;;;5078022;28;20547;-64
2024/01/02 06:26:51;;;;;;;32.05;3.45;;;8.90;99.90;;;;;;5091301;28;20047;-67
2024/01/02 06:29:19;;;;;;;23.38;3.08;;;8.90;99.90;;;;;;5090574;28;20511;-70
2024/01/02 06:31:47;;;;;;;34.15;3.15;;;8.90;99.90;;;;;;5087856;28;20055;-62
2024/01/02 06:34:14;;;;;;;18.25;2.30;;;8.90;99.90;;;;;;5086475;28;20071;-62
2024/01/02 06:36:42;;;;;;;24.95;2.95;;;8.90;99.90;;;;;;5086510;28;20036;-65
2024/01/02 06:39:10;;;;;;;26.23;3.75;;;8.90;99.90;;;;;;5084999;28;20048;-65
2024/01/02 06:41:38;;;;;;;37.15;3.40;;;8.90;99.90;;;;;;5067644;28;20044;-61
2024/01/02 06:44:06;;;;;;;26.27;2.72;;;9.00;99.90;;;;;;5086375;28;20044;-62
2024/01/02 06:46:33;;;;;;;21.55;3.42;;;8.90;99.90;;;;;;5088088;28;20478;-61
2024/01/02 06:49:01;;;;;;;36.72;3.33;;;8.90;99.90;;;;;;5077463;28;20045;-62
2024/01/02 06:51:29;;;;;;;24.10;2.05;;;8.90;99.90;;;;;;5081668;28;20062;-61
2024/01/02 06:53:57;;;;;;;26.58;3.30;;;8.90;99.90;;;;;;5099468;28;20047;-65
2024/01/02 06:56:25;;;;;;;31.60;2.72;;;8.90;99.90;;;;;;5110854;28;20048;-68
2024/01/02 06:58:53;;;;;;;16.88;2.60;;;8.90;99.90;;;;;;5095780;28;20514;-62
2024/01/02 07:01:24;;;;;;;24.75;2.95;;;8.90;99.90;;;;;;5087576;28;20051;-62
2024/01/02 07:03:52;;;;;;;15.75;2.15;;;8.90;99.90;;;;;;5088837;28;20471;-65
2024/01/02 07:06:19;;;;;;;21.67;3.00;;;8.90;99.90;;;;;;5087905;28;20051;-67
2024/01/02 07:08:47;;;;;;;18.92;2.25;;;8.90;99.90;;;;;;5083739;28;20064;-71
2024/01/02 07:11:15;;;;;;;27.73;3.00;;;8.90;99.90;;;;;;5090315;28;20056;-72
2024/01/02 07:13:43;;;;;;;30.92;2.97;;;8.90;99.90;;;;;;5089061;28;20036;-64
2024/01/02 07:16:11;;;;;;;15.13;2.58;;;8.90;99.90;;;;;;5087225;28;20052;-66
2024/01/02 07:18:38;;;;;;;19.75;3.72;;;8.90;99.90;;;;;;5082019;28;20063;-66
2024/01/02 07:21:07;;;;;;;19.05;2.45;;;8.90;99.90;;;;;;5076089;28;20044;-65
2024/01/02 07:23:39;;;;;;;22.75;2.00;;;8.90;99.90;;;;;;5102313;28;20498;-66
2024/01/02 07:26:07;;;;;;;27.05;3.30;;;8.90;99.90;;;;;;5082241;28;20068;-70
2024/01/02 07:28:36;;;;;;;17.67;2.50;;;8.90;99.90;;;;;;5081063;28;20399;-64
2024/01/02 07:31:03;;;;;;;25.90;2.72;;;8.90;99.90;;;;;;5089793;28;20204;-62
2024/01/02 07:33:31;;;;;;;20.23;2.28;;;9.00;99.90;;;;;;5092813;28;20037;-63
2024/01/02 07:35:59;;;;;;;18.13;2.72;;;9.00;99.90;;;;;;5068355;28;20061;-64
2024/01/02 07:38:27;;;;;;;21.33;2.97;;;9.00;99.90;;;;;;5078429;28;20067;-63
2024/01/02 07:40:55;;;;;;;22.33;2.38;;;9.00;99.90;;;;;;5087204;28;20044;-65
2024/01/02 07:43:23;;;;;;;18.27;2.22;;;9.00;99.90;;;;;;5087956;28;20388;-68
2024/01/02 07:45:50;;;;;;;17.35;2.42;;;9.00;99.90;;;;;;5087973;28;20391;-63
2024/01/02 07:48:18;;;;;;;26.95;2.05;;;9.00;99.90;;;;;;5082417;28;20071;-65
2024/01/02 07:50:46;;;;;;;17.38;1.95;;;9.00;99.90;;;;;;5067445;28;20049;-62
2024/01/02 07:53:19;;;;;;;22.30;2.72;;;9.00;99.90;;;;;;5094512;28;20059;-62
2024/01/02 07:55:48;;;;;;;21.05;2.88;;;9.10;99.90;;;;;;5086230;28;20047;-62
2024/01/02 07:58:16;;;;;;;17.88;2.45;;;9.00;99.90;;;;;;5091856;28;20399;-65
2024/01/02 08:00:44;;;;;;;26.80;4.03;;;9.10;99.90;;;;;;5089271;28;20048;-62
2024/01/02 08:03:14;;;;;;;21.67;2.90;;;9.10;99.90;;;;;;5084008;28;20127;-61
2024/01/02 08:05:42;;;;;;;25.38;3.00;;;9.10;99.90;;;;;;5065683;28;20052;-62
2024/01/02 08:08:10;;;;;;;19.33;3.35;;;9.10;99.90;;;;;;5076598;28;20400;-62
2024/01/02 08:10:39;;;;;;;28.77;3.38;;;9.10;99.90;;;;;;5088106;28;20055;-66
2024/01/02 08:13:06;;;;;;;31.60;3.75;;;9.10;99.90;;;;;;5088354;28;20059;-67
2024/01/02 08:15:34;;;;;;;15.98;2.47;;;9.10;99.90;;;;;;5087737;28;20184;-65
2024/01/02 08:18:08;;;;;;;22.98;2.42;;;9.10;99.90;;;;;;5087326;28;20055;-63
2024/01/02 08:20:38;;;;;;;18.45;2.65;;;9.10;99.90;;;;;;5068442;28;20048;-65
2024/01/02 08:23:06;;;;;;;20.65;2.97;;;9.10;99.90;;;;;;5097518;28;20048;-64
2024/01/02 08:25:34;;;;;;;22.70;2.72;;;9.10;99.90;;;;;;5089219;28;20043;-61
2024/01/02 08:28:02;;;;;;;26.92;3.53;;;9.10;99.90;;;;;;5094539;28;20478;-61
2024/01/02 08:30:30;;;;;;;20.85;2.42;;;9.10;99.90;;;;;;5087640;28;20048;-65
2024/01/02 08:32:58;;;;;;;24.17;3.50;;;9.00;99.90;;;;;;5087468;28;20052;-61
2024/01/02 08:35:27;;;;;;;24.88;2.90;;;9.00;99.90;;;;;;5070292;28;20357;-68
2024/01/02 08:37:55;;;;;;;20.80;3.72;;;9.00;99.90;;;;;;5077311;28;20486;-66
2024/01/02 08:40:22;;;;;;;21.60;2.40;;;9.00;99.90;;;;;;5088823;28;20056;-71
2024/01/02 08:42:50;;;;;;;24.48;2.72;;;9.00;99.90;;;;;;5084157;28;20062;-72
2024/01/02 08:45:18;;;;;;;16.35;2.45;;;9.00;99.90;;;;;;5082200;28;20044;-68
2024/01/02 08:47:46;;;;;;;23.65;3.22;;;9.00;99.90;;;;;;5084999;28;20040;-63
2024/01/02 08:50:14;;;;;;;23.83;3.17;;;9.00;99.90;;;;;;5069256;28;20056;-70
2024/01/02 08:52:46;;;;;;;28.52;4.35;;;9.00;99.90;;;;;;5098767;28;20044;-65
2024/01/02 08:55:14;;;;;;;30.60;4.20;;;9.00;99.90;;;;;;5089157;28;20048;-62
2024/01/02 08:57:42;;;;;;;19.20;3.00;;;9.00;99.90;;;;;;5091452;28;20047;-65
2024/01/02 09:00:13;;;;;;;26.67;3.15;;;9.00;99.90;;;;;;5072681;28;20056;-69
2024/01/02 09:02:42;;;;;;;23.67;3.38;;;9.00;99.90;;;;;;5075028;28;20048;-62
2024/01/02 09:05:09;;;;;;;13.07;2.15;;;9.00;99.90;;;;;;5078081;28;20487;-63
2024/01/02 09:07:37;;;;;;;24.65;3.80;;;9.00;99.90;;;;;;5087698;28;20048;-62
2024/01/02 09:10:06;;;;;;;28.50;3.83;;;9.10;99.90;;;;;;5088054;28;20052;-63
2024/01/02 09:12:33;;;;;;;25.05;2.78;;;9.10;99.90;;;;;;5086703;28;20056;-61
2024/01/02 09:15:01;;;;;;;22.83;2.88;;;9.10;99.90;;;;;;5087892;28;20044;-61
2024/01/02 09:17:28;;;;;;;24.05;2.97;;;9.10;99.90;;;;;;5087907;28;20052;-63
2024/01/02 09:19:56;;;;;;;26.55;6.68;;;9.10;99.90;;;;;;5081919;28;20060;-61
2024/01/02 09:22:24;;;;;;;31.48;3.20;;;9.10;99.90;;;;;;5081265;28;20605;-61
2024/01/02 09:24:53;;;;;;;30.25;3.25;;;9.20;99.90;;;;;;5085462;28;20056;-61
2024/01/02 09:27:23;;;;;;;28.90;3.58;;;9.10;99.90;;;;;;5087844;28;20044;-61
2024/01/02 09:29:50;;;;;;;;;;;9.10;99.90;;;;;;5085587;28;20055;-61
2024/01/02 09:32:18;;;;;;;26.20;3.70;;;9.10;99.90;;;;;;5086381;28;19920;-63
2024/01/02 09:34:46;;;;;;;22.50;2.22;;;9.10;99.90;;;;;;5079026;28;20041;-62
2024/01/02 09:37:16;;;;;;;;;;;9.10;99.90;;;;;;5068877;28;20044;-66
2024/01/02 09:39:44;;;;;;;17.60;2.50;;;9.10;99.90;;;;;;5086970;28;19924;-61
2024/01/02 09:42:18;;;;;;;21.17;3.05;;;9.20;99.90;;;;;;5087670;28;20048;-61
2024/01/02 09:45:09;;;;;;;17.55;2.83;;;9.10;99.90;;;;;;5087768;28;20063;-63
2024/01/02 09:48:08;;;;;;;15.02;2.80;;;9.10;99.90;;;;;;5055806;28;20044;-61
2024/01/02 09:51:09;;;;;;;21.73;2.70;;;9.10;99.90;;;;;;5072835;28;20633;-62
2024/01/02 09:53:46;;;;;;;22.00;3.22;;;9.10;99.90;;;;;;5096309;28;20047;-61
2024/01/02 09:56:38;;;;;;;14.85;2.95;;;9.10;99.90;;;;;;5112046;28;20051;-61
2024/01/02 09:59:25;;;;;;;23.90;3.80;;;9.10;99.90;;;;;;5095011;28;20051;-61
2024/01/02 10:02:31;;;;;;;31.88;5.07;;;9.10;99.90;;;;;;5090519;28;20048;-61
2024/01/02 10:05:28;;;;;;;25.02;4.32;;;9.10;99.90;;;;;;5081812;28;20111;-60
2024/01/02 10:08:17;;;;;;;12.70;2.33;;;9.10;99.90;;;;;;5079381;28;20047;-63
2024/01/02 10:11:07;;;;;;;30.30;3.08;;;9.10;99.90;;;;;;5091199;28;20048;-64
2024/01/02 10:13:55;;;;;;;;;;;9.10;99.90;;;;;;5085029;28;20051;-62
2024/01/02 10:16:48;;;;;;;23.58;2.97;;;9.10;99.90;;;;;;5077819;28;19931;-61
2024/01/02 10:19:23;;;;;;;28.95;4.35;;;9.10;99.90;;;;;;5085843;28;20051;-61
2024/01/02 10:22:09;;;;;;;29.20;5.15;;;9.10;99.90;;;;;;5088385;28;20050;-62
2024/01/02 10:25:04;;;;;;;33.40;4.90;;;9.10;99.90;;;;;;5100977;28;20047;-62
2024/01/02 10:27:48;;;;;;;23.48;3.78;;;9.10;99.90;;;;;;5093790;28;20063;-60
2024/01/02 10:30:21;;;;;;;18.33;3.20;;;9.10;99.90;;;;;;5111885;28;20395;-61
2024/01/02 10:32:56;;;;;;;25.42;3.22;;;9.10;99.90;;;;;;5103211;28;20032;-63
2024/01/02 10:35:43;;;;;;;34.45;5.10;;;9.10;99.90;;;;;;5091404;28;20052;-61
2024/01/02 10:38:34;;;;;;;29.73;3.80;;;9.10;99.90;;;;;;5079275;28;20059;-62
2024/01/02 10:41:15;;;;;;;25.85;3.83;;;9.10;99.90;;;;;;5090771;28;20044;-62
2024/01/02 10:43:53;;;;;;;39.38;5.60;;;9.10;99.90;;;;;;5089205;28;20441;-62
2024/01/02 10:46:52;;;;;;;29.00;4.13;;;9.10;99.90;;;;;;5089344;28;20055;-61
2024/01/02 10:49:40;;;;;;;25.73;4.00;;;9.10;99.90;;;;;;5088904;28;20055;-61
2024/01/02 10:52:25;;;;;;;22.83;4.55;;;9.10;99.90;;;;;;5092396;28;20039;-60
2024/01/02 10:55:20;;;;;;;22.60;4.32;;;9.10;99.90;;;;;;5089705;28;20454;-62
2024/01/02 10:57:52;;;;;;;16.67;4.05;;;9.10;99.90;;;;;;5090570;28;20055;-61
2024/01/02 11:00:22;;;;;;;24.02;5.45;;;9.10;99.90;;;;;;5082593;28;20051;-61
2024/01/02 11:03:09;;;;;;;18.90;4.13;;;9.00;99.90;;;;;;5084025;28;20050;-63
2024/01/02 11:06:25;;;;;;;15.75;4.10;;;9.00;99.90;;;;;;5069473;28;20044;-61
2024/01/02 11:09:11;;;;;;;16.38;3.22;;;8.90;99.90;;;;;;5071816;28;20119;-61
2024/01/02 11:11:40;;;;;;;8.18;1.92;;;8.90;99.90;;;;;;5090237;28;20544;-61
2024/01/02 11:14:13;;;;;;;;;;;8.80;99.90;;;;;;5089952;28;20643;-62
2024/01/02 11:16:44;;;;;;;2.75;1.10;;;8.70;99.90;;;;;;5052228;28;19939;-62
2024/01/02 11:19:15;;;;;;;12.52;2.03;;;8.70;99.90;;;;;;5088523;28;20040;-63
2024/01/02 11:21:49;;;;;;;16.80;3.58;;;8.60;99.90;;;;;;5089114;28;20059;-62
2024/01/02 11:24:22;;;;;;;16.60;5.03;;;8.60;99.90;;;;;;5090659;28;20051;-67
2024/01/02 11:26:52;;;;;;;17.00;4.57;;;8.60;99.90;;;;;;5069825;28;20523;-63
2024/01/02 11:29:23;;;;;;;15.93;3.20;;;8.60;99.90;;;;;;5083045;28;20056;-64
2024/01/02 11:31:54;;;;;;;19.25;3.50;;;8.60;99.90;;;;;;5069748;28;20052;-65
2024/01/02 11:34:49;;;;;;;11.90;2.50;;;8.50;99.90;;;;;;5089207;28;20055;-62
2024/01/02 11:37:38;;;;;;;13.35;3.00;;;8.50;99.90;;;;;;5088579;28;20055;-67
2024/01/02 11:40:29;;;;;;;13.93;2.88;;;8.60;99.90;;;;;;5089484;28;20047;-66
2024/01/02 11:43:22;;;;;;;17.95;5.30;;;8.60;99.90;;;;;;5089393;28;20051;-66
2024/01/02 11:45:58;;;;;;;18.17;6.00;;;8.60;99.90;;;;;;5089940;28;20043;-69
2024/01/02 11:48:38;;;;;;;14.40;2.80;;;8.60;99.90;;;;;;5088339;28;20338;-69
2024/01/02 11:51:18;;;;;;;12.88;2.83;;;8.60;99.90;;;;;;5085950;28;20057;-71
2024/01/02 11:54:04;;;;;;;15.68;3.05;;;8.60;99.90;;;;;;5093087;28;20047;-65
2024/01/02 11:56:34;;;;;;;12.57;4.93;;;8.50;99.90;;;;;;5089684;28;20047;-69
2024/01/02 11:59:23;;;;;;;18.30;4.28;;;8.60;99.90;;;;;;5089218;28;20507;-69
2024/01/02 12:02:02;;;;;;;15.48;4.50;;;8.50;99.90;;;;;;5071336;28;20055;-69
2024/01/02 12:04:54;;;;;;;9.77;4.15;;;8.60;99.90;;;;;;5082955;28;20043;-66
2024/01/02 12:07:25;;;;;;;12.40;4.35;;;8.60;99.90;;;;;;5070713;28;20040;-70
2024/01/02 12:09:56;;;;;;;9.65;2.67;;;8.50;99.90;;;;;;5085373;28;20059;-70
2024/01/02 12:13:01;;;;;;;9.55;2.53;;;8.50;99.90;;;;;;5092297;28;20055;-69
2024/01/02 12:15:33;;;;;;;8.40;2.10;;;8.50;99.90;;;;;;5079836;28;20036;-70
2024/01/02 12:18:05;;;;;;;9.18;3.00;;;8.50;99.90;;;;;;5087999;28;20495;-70
2024/01/02 12:20:44;;;;;;;10.00;2.40;;;8.50;99.90;;;;;;5084440;28;20048;-70
2024/01/02 12:23:14;;;;;;;7.32;2.58;;;8.50;99.90;;;;;;5081434;28;20044;-70
2024/01/02 12:25:46;;;;;;;8.57;1.95;;;8.50;99.90;;;;;;5107866;28;20043;-71
2024/01/02 12:28:14;;;;;;;8.05;2.58;;;8.50;99.90;;;;;;5100441;28;20044;-62
2024/01/02 12:30:57;;;;;;;9.57;4.32;;;8.50;99.90;;;;;;5088748;28;20039;-68
2024/01/02 12:33:31;;;;;;;14.38;4.88;;;8.50;99.90;;;;;;5087465;28;20041;-64
2024/01/02 12:36:05;;;;;;;13.52;5.05;;;8.50;99.90;;;;;;5082975;28;20518;-62
2024/01/02 12:38:55;;;;;;;15.07;5.85;;;8.50;99.90;;;;;;5079730;28;20040;-63
2024/01/02 12:41:24;;;;;;;;;;;8.50;99.90;;;;;;5087247;28;20052;-62
2024/01/02 12:43:59;;;;;;;8.93;4.40;;;8.40;99.90;;;;;;5097252;28;19920;-63
2024/01/02 12:47:05;;;;;;;9.77;3.78;;;8.40;99.90;;;;;;5098799;28;20056;-63
2024/01/02 12:49:40;;;;;;;9.40;3.25;;;8.40;99.90;;;;;;5088490;28;20114;-61
2024/01/02 12:52:13;;;;;;;10.48;4.50;;;8.40;99.90;;;;;;5089109;28;20040;-67
2024/01/02 12:54:47;;;;;;;13.70;5.75;;;8.40;99.90;;;;;;5103973;28;20511;-63
2024/01/02 12:57:16;;;;;;;6.88;3.70;;;8.40;99.90;;;;;;5089360;28;20170;-65
2024/01/02 12:59:44;;;;;;;9.48;3.42;;;8.50;99.90;;;;;;5085504;28;20059;-68
2024/01/02 13:02:15;;;;;;;11.55;3.72;;;8.50;99.90;;;;;;5089041;28;20507;-62
2024/01/02 13:04:43;;;;;;;10.35;3.90;;;8.50;99.90;;;;;;5091741;28;20055;-64
2024/01/02 13:07:11;;;;;;;8.02;2.80;;;8.50;99.90;;;;;;5074489;28;20051;-62
2024/01/02 13:09:41;;;;;;;6.90;2.65;;;8.50;99.90;;;;;;5066800;28;20407;-64
2024/01/02 13:12:12;;;;;;;7.88;2.25;;;8.50;99.90;;;;;;5067601;28;20060;-64